• Join FlightAware (Why Join?)
  • Login
  • US Flag GB Flag 
09:02 EDT


 

Airport Tracker/Info


-or-


 

Live Flight TrackerFlight Track Log ✈ SWA1015 ✈ 22-Apr-2013 ✈ KSJC - KAUS

Flight Track Log - Related Links

Times and Time Zones

All times are in EDT time to prevent confusion due to time zone crossing. See the SWA1015 flight status page for this flight to view local times or setup timezone preferences in your user account.

Time Position Orientation Groundspeed Altitude Reporting Facility
EDT Latitude Longitude Course Direction KTS MPH feet Rate Location/Type
09:39 37.3833 -121.9667 360° North 173 199 1,800  Level Northern Cal TRACON
09:40 37.4333 -121.9667 360° North 229 264 4,600 1,560 Climbing Northern Cal TRACON
09:41 37.4167 -121.9000 107° East 240 276 5,000 1,500 Climbing Northern Cal TRACON
09:42 37.3667 -121.8333 133° Southeast 265 305 7,700 2,820 Climbing Northern Cal TRACON
09:43 37.3036 -121.7600 137° Southeast 297 342 10,900 2,760 Climbing Oakland Center
09:44 37.2289 -121.6733 137° Southeast 363 418 13,500 3,060 Climbing Oakland Center
09:45 37.1497 -121.5822 137° Southeast 384 442 17,100 3,180 Climbing Oakland Center
09:46 37.0697 -121.4975 140° Southeast 395 455 20,000 2,700 Climbing Oakland Center
09:47 36.9836 -121.4022 139° Southeast 413 475 22,700 2,640 Climbing Oakland Center
09:48 36.8933 -121.3022 138° Southeast 429 494 25,400 2,640 Climbing Oakland Center
09:49 36.7919 -121.1939 139° Southeast 437 503 28,100 2,280 Climbing Oakland Center
09:50 36.6972 -121.0922 139° Southeast 446 513 30,000 1,740 Climbing Oakland Center
09:51 36.6006 -120.9878 139° Southeast 458 527 31,700 2,160 Climbing Oakland Center
09:52 36.5167 -120.8692 131° Southeast 455 524 34,400 2,280 Climbing Oakland Center
09:53 36.4408 -120.7517 129° Southeast 439 505 36,400 1,440 Climbing Oakland Center
09:54 36.3644 -120.6317 128° Southeast 440 506 37,400 960 Climbing Oakland Center
09:55 36.2853 -120.5097 129° Southeast 451 519 38,400 780 Climbing Oakland Center
09:56 36.2031 -120.3844 129° Southeast 464 534 39,100 600 Climbing Oakland Center
09:57 36.1164 -120.2644 132° Southeast 467 537 39,700 660 Climbing Oakland Center
09:58 36.0125 -120.1619 141° Southeast 472 543 40,500 600 Climbing Oakland Center
09:59 35.9103 -120.0622 142° Southeast 466 536 41,000 240 Climbing Oakland Center
10:00 35.8147 -119.9464 135° Southeast 477 549 41,000  Level Oakland Center
10:01 35.7314 -119.8114 127° Southeast 487 560 41,000  Level Oakland Center
10:02 35.6486 -119.6783 127° Southeast 487 560 41,000  Level Oakland Center
10:03 35.5653 -119.5439 127° Southeast 490 564 41,000  Level Oakland Center
10:04 35.4836 -119.4111 127° Southeast 487 560 41,000  Level Oakland Center
10:05 35.4531 -119.3583 125° Southeast 487 560 41,000  Level Los Angeles Center
10:06 35.3717 -119.2264 127° Southeast 486 559 41,000  Level Los Angeles Center
10:07 35.2897 -119.0956 127° Southeast 485 558 41,000  Level Los Angeles Center
10:08 35.2083 -118.9664 128° Southeast 483 556 41,000  Level Los Angeles Center
10:09 35.1092 -118.8106 128° Southeast 482 555 41,000  Level Los Angeles Center
10:10 35.0267 -118.6811 128° Southeast 483 556 41,000  Level Los Angeles Center
10:11 34.9272 -118.5256 128° Southeast 485 558 41,000  Level Los Angeles Center
10:12 34.8475 -118.3986 127° Southeast 486 559 41,100  Climbing Los Angeles Center
10:13 34.7628 -118.2697 129° Southeast 489 563 41,100  Level Los Angeles Center
10:14 34.6789 -118.1397 128° Southeast 493 567 41,100  Level Los Angeles Center
10:15 34.6100 -117.9964 120° Southeast 507 583 41,100  Level Los Angeles Center
10:16 34.5636 -117.8400 110° East 502 578 41,100 -60 Level Los Angeles Center
10:17 34.5072 -117.6506 110° East 503 579 41,000  Descending Los Angeles Center
10:18 34.4597 -117.4947 110° East 499 574 41,100  Climbing Los Angeles Center
10:19 34.4128 -117.3392 110° East 496 571 41,100  Level Los Angeles Center
10:20 34.3697 -117.1939 110° East 487 560 41,100  Level Los Angeles Center
10:21 34.3186 -117.0314 111° Southeast 497 572 41,100  Level Los Angeles Center
10:22 34.2719 -116.8769 110° East 493 567 41,100  Level Los Angeles Center
10:23 34.2242 -116.7228 111° Southeast 495 570 41,100  Level Los Angeles Center
10:24 34.1656 -116.5372 111° Southeast 496 571 41,100 -60 Level Los Angeles Center
10:25 34.1161 -116.3728 110° East 493 567 41,000 -60 Descending Los Angeles Center
10:26 34.0669 -116.2175 111° Southeast 494 568 41,000  Level Los Angeles Center
10:27 34.0172 -116.0622 111° Southeast 496 571 41,000  Level Los Angeles Center
10:28 33.9678 -115.9078 111° Southeast 493 567 41,000  Level Los Angeles Center
10:29 33.9181 -115.7492 111° Southeast 502 578 41,000  Level Los Angeles Center
10:30 33.8672 -115.5928 111° Southeast 502 578 41,000  Level Los Angeles Center
10:31 33.8158 -115.4372 112° Southeast 499 574 41,000  Level Los Angeles Center
10:33 33.7753 -115.3117 111° Southeast 501 577 41,000  Level Los Angeles Center
10:34 33.7058 -115.0942 111° Southeast 499 574 41,000  Level Los Angeles Center
10:35 33.6703 -114.9319 105° East 500 575 41,000  Level Los Angeles Center
10:36 33.6414 -114.7669 102° East 504 580 41,000  Level Los Angeles Center
10:37 33.6169 -114.6150 101° East 507 583 41,000  Level Albuquerque Center
10:38 33.5828 -114.4158 102° East 508 585 41,000  Level Albuquerque Center
10:39 33.5517 -114.2506 103° East 508 585 41,000  Level Albuquerque Center
10:40 33.5217 -114.0847 102° East 510 587 41,000  Level Albuquerque Center
10:41 33.4900 -113.9192 103° East 510 587 41,000  Level Albuquerque Center
10:42 33.4597 -113.7536 102° East 510 587 41,000  Level Albuquerque Center
10:43 33.4297 -113.5858 102° East 513 590 41,000  Level Albuquerque Center
10:44 33.3972 -113.4183 103° East 515 593 41,000  Level Albuquerque Center
10:45 33.3642 -113.2517 103° East 515 593 41,000  Level Albuquerque Center
10:46 33.3258 -113.0514 103° East 513 590 41,000  Level Albuquerque Center
10:47 33.2942 -112.8858 103° East 511 588 41,000  Level Albuquerque Center
10:48 33.2622 -112.7192 103° East 511 588 41,000  Level Albuquerque Center
10:49 33.2289 -112.5519 103° East 509 586 41,100  Climbing Albuquerque Center
10:50 33.1967 -112.3892 103° East 508 585 41,100 -60 Level Albuquerque Center
10:51 33.1642 -112.2242 103° East 512 589 41,000  Descending Albuquerque Center
10:52 33.1303 -112.0603 104° East 513 590 41,100  Climbing Albuquerque Center
10:53 33.0911 -111.8622 103° East 514 592 41,000 -60 Descending Albuquerque Center
10:54 33.0581 -111.6972 103° East 515 593 41,000  Level Albuquerque Center
10:55 33.0236 -111.5336 104° East 514 592 41,000  Level Albuquerque Center
10:56 32.9900 -111.3672 103° East 518 596 41,000  Level Albuquerque Center
10:57 32.9556 -111.2008 104° East 519 597 41,100  Climbing Albuquerque Center
10:58 32.9200 -111.0369 104° East 517 595 41,000  Descending Albuquerque Center
10:59 32.8861 -110.8700 104° East 520 598 41,100  Climbing Albuquerque Center
11:00 32.8442 -110.6744 104° East 514 592 41,100  Level Albuquerque Center
11:01 32.8064 -110.5031 105° East 519 597 41,100  Level Albuquerque Center
11:02 32.7714 -110.3389 104° East 518 596 41,100  Level Albuquerque Center
11:03 32.7361 -110.1744 104° East 519 597 41,100  Level Albuquerque Center
11:04 32.6986 -110.0092 105° East 524 603 41,100  Level Albuquerque Center
11:05 32.6611 -109.8464 105° East 521 600 41,100  Level Albuquerque Center
11:06 32.6169 -109.6481 105° East 524 603 41,100  Level Albuquerque Center
11:08 32.5800 -109.4833 105° East 525 604 41,100 -60 Level Albuquerque Center
11:09 32.5425 -109.3211 105° East 521 600 41,000  Descending Albuquerque Center
11:10 32.5072 -109.1600 105° East 517 595 41,100  Climbing Albuquerque Center
11:11 32.4631 -108.9672 105° East 516 594 41,000  Descending Albuquerque Center
11:12 32.4269 -108.8067 105° East 515 593 41,100  Climbing Albuquerque Center
11:13 32.3883 -108.6453 106° East 517 595 41,000 -60 Descending Albuquerque Center
11:14 32.3514 -108.4811 105° East 521 600 41,000  Level Albuquerque Center
11:15 32.3031 -108.2842 106° East 523 602 41,100  Climbing Albuquerque Center
11:16 32.2658 -108.1217 105° East 521 600 41,000 -60 Descending Albuquerque Center
11:17 32.2278 -107.9567 105° East 521 600 41,000  Level Albuquerque Center
11:18 32.1886 -107.7922 106° East 524 603 41,000  Level Albuquerque Center
11:19 32.1483 -107.6269 106° East 526 605 41,000  Level Albuquerque Center
11:20 32.1019 -107.4297 105° East 526 605 41,000  Level Albuquerque Center
11:21 32.0622 -107.2658 106° East 527 606 41,000  Level Albuquerque Center
11:22 32.0228 -107.1008 106° East 528 608 41,000  Level Albuquerque Center
11:23 31.9819 -106.9358 106° East 529 609 41,000  Level Albuquerque Center
11:24 31.9394 -106.7733 107° East 525 604 41,000  Level Albuquerque Center
11:25 31.8903 -106.5772 106° East 524 603 41,000  Level Albuquerque Center
11:26 31.8467 -106.4119 107° East 528 608 41,000  Level Albuquerque Center
11:27 31.8089 -106.2492 105° East 523 602 41,000  Level Albuquerque Center
11:28 31.7919 -106.0781 97° East 520 598 41,000  Level Albuquerque Center
11:29 31.7706 -105.9106 98° East 520 598 41,000  Level Albuquerque Center
11:30 31.7503 -105.7417 98° East 522 601 41,000  Level Albuquerque Center
11:31 31.7261 -105.5372 98° East 525 604 41,000  Level Albuquerque Center
11:32 31.7047 -105.3661 98° East 528 608 41,000  Level Albuquerque Center
11:33 31.6847 -105.1958 98° East 526 605 41,000  Level Albuquerque Center
11:34 31.6631 -105.0258 98° East 525 604 41,000  Level Albuquerque Center
11:35 31.6411 -104.8558 99° East 525 604 41,000  Level Albuquerque Center
11:36 31.6189 -104.6853 99° East 526 605 41,000  Level Albuquerque Center
11:37 31.5958 -104.5136 99° East 530 610 41,000  Level Albuquerque Center
11:39 31.5747 -104.3417 98° East 532 612 41,000  Level Albuquerque Center
11:40 31.5478 -104.1353 99° East 533 613 41,000  Level Albuquerque Center
11:41 31.5247 -103.9647 99° East 532 612 41,000  Level Albuquerque Center
11:42 31.5003 -103.7944 100° East 530 610 41,000  Level Albuquerque Center
11:43 31.4775 -103.6167 98° East 528 608 41,000  Level Albuquerque Center
11:44 31.4528 -103.4483 100° East 527 606 41,000  Level Albuquerque Center
11:45 31.4333 -103.2789 98° East 527 606 41,000  Level Albuquerque Center
11:46 31.4128 -103.1089 98° East 528 608 41,000  Level Albuquerque Center
11:47 31.3861 -102.9067 99° East 527 606 41,000  Level Albuquerque Center
11:48 31.3642 -102.7386 99° East 525 604 41,000  Level Albuquerque Center
11:49 31.3425 -102.5697 98° East 526 605 41,000 -360 Level Albuquerque Center
11:50 31.3214 -102.4117 99° East 538 619 40,300 -900 Descending Albuquerque Center
11:51 31.2953 -102.2097 99° East 531 611 39,200 -660 Descending Albuquerque Center
11:52 31.2733 -102.0419 99° East 527 606 39,000 -120 Descending Albuquerque Center
11:53 31.2525 -101.8775 98° East 520 598 39,000  Level Albuquerque Center
11:54 31.2297 -101.7142 99° East 514 592 39,000  Level Albuquerque Center
11:55 31.2161 -101.6169 99° East 510 587 39,000  Level Houston Center
11:56 31.1878 -101.4219 100° East 508 585 39,000  Level Houston Center
11:57 31.1678 -101.2706 99° East 512 589 39,000  Level Houston Center
11:58 31.1456 -101.1067 99° East 513 590 39,000  Level Houston Center
11:59 31.1214 -100.9431 100° East 512 589 39,000  Level Houston Center
12:00 31.0933 -100.7439 99° East 516 594 39,000  Level Houston Center
12:01 31.0692 -100.5778 100° East 517 595 39,000  Level Houston Center
12:02 31.0458 -100.4128 99° East 517 595 39,000 -180 Level Houston Center
12:03 31.0217 -100.2483 100° East 515 593 38,700 -600 Descending Houston Center
12:04 30.9961 -100.0828 100° East 516 594 37,800 -960 Descending Houston Center
12:05 30.9731 -99.9208 99° East 511 588 36,800 -960 Descending Houston Center
12:06 30.9483 -99.7606 100° East 504 580 35,900 -1,020 Descending Houston Center
12:07 30.9192 -99.5714 100° East 497 572 34,700 -1,380 Descending Houston Center
12:08 30.8953 -99.4164 100° East 490 564 33,100 -2,280 Descending Houston Center
12:09 30.8722 -99.2606 100° East 489 563 30,000 -2,760 Descending Houston Center
12:10 30.8464 -99.1083 101° East 483 556 27,500 -2,400 Descending Houston Center
12:11 30.8244 -98.9628 100° East 466 536 25,100 -2,280 Descending Houston Center
12:12 30.8022 -98.8225 100° East 448 516 22,800 -2,400 Descending Houston Center
12:13 30.7831 -98.6592 98° East 431 496 20,200 -2,400 Descending Houston Center
12:14 30.7700 -98.5247 96° East 414 476 17,900 -2,220 Descending Houston Center
12:15 30.7539 -98.3950 98° East 407 468 15,700 -2,220 Descending Houston Center
12:16 30.7411 -98.2689 97° East 397 457 13,400 -2,160 Descending Houston Center
12:17 30.7289 -98.1503 97° East 377 434 11,200 -1,680 Descending Houston Center
12:18 30.7000 -98.0453 108° East 344 396 10,000 -1,260 Descending Houston Center
12:19 30.6511 -97.9644 125° Southeast 310 357 8,700 -1,500 Descending Houston Center
12:21 30.5950 -97.8711 125° Southeast 301 346 7,000 -1,380 Descending Houston Center
12:22 30.5506 -97.7994 126° Southeast 290 334 5,900 -1,380 Descending Houston Center
12:23 30.5081 -97.7322 126° Southeast 275 316 4,200 -1,440 Descending Houston Center
12:24 30.4481 -97.7117 164° South 266 306 3,000 -1,200 Descending Houston Center
12:26 30.3263 -97.5579 196° South  Level FlightAware Approximate
12:33 30.1945 -97.6699 221° Southwest  Level Estimated
12:34 30.1945 -97.6699 221° Southwest  Level Estimated
12:35 30.1945 -97.6699 221° Southwest  Level Estimated
12:36 30.1945 -97.6699 221° Southwest  Level Estimated
12:37 30.1945 -97.6699 221° Southwest  Level Estimated